world map with VVPQ marked

VVPQ - Airport

This information may not be accurate or current and is not valid for navigation or flight planning. No warranty of fitness for any purpose is made or implied.

flag of Vietnam

Donate via PayPal

Additional information is available on the NEW Great Circle Mapper

Location
City:  Phú Quóc, Vietnam
Name:Phú Quóc International Airport
ICAO / IATA:VVPQ / PQC

Details
Type:Airport (Aerodrome, Airfield)
Use:Public/Civil
Latitude:10°10'18"N (10.171667)
Longitude:103°59'28"E (103.991111)
Elevation:37 ft (11 m)
Runways:1
Longest:9843 ft (3000 m)

Time
Timezone:UTC+7 (DST+9)
Local Time:

Weather
METAR:VVPQ  041400Z 04001KT 8000 FEW017 24/22 Q1013 NOSIG
TAF:VVPQ  041100Z 0412/0512 10008KT 9999 FEW017

Related Locations
Nearby:
Farthest:HUU: 12437 mi / 20015 km
Huánuco [Alférez FAP David Figueroa Fernandini], HUC, PE

Find:

   beyond  
but within

Other Information
Maps:
Sources:

  


 


Great Circle Mapper   Great Circle Mapper
Great Circle Mapper FAQ   Great Circle Mapper FAQ
  Karl's Home Page
KLS²   KLS² Home
   GC on Facebook
Airlines of the World   Airlines of the World
Donate via PayPal


Copyright © 2004-2019, Karl L. Swartz. All rights reserved.
All trademarks mentioned herein belong to their respective owners.

Please see credits for attribution and copyright information.

Karl Swartz <karl@kls2.com>
  Powered by FreeBSD
Valid HTML 4.01!
Labeled with ICRA
hCard Microformat
Geo Microformat